Time;durP1;ratioP1;P1;durP2;ratioP2;P2;SDS_P1;SDS_P2;PMS_P1;PMS_P2;Temp;Humidity;BMP_temperature;BMP_pressure;BME280_temperature;BME280_humidity;BME280_pressure;Samples;Min_cycle;Max_cycle;Signal;HPM_P1;HPM_P2
2021/01/21 00:01:13;;;;;;;9.50;6.27;;;;;;;3.61;100.00;99392.25;6163354;28;20590;-74
2021/01/21 00:04:16;;;;;;;8.63;6.13;;;;;;;3.64;100.00;99392.69;6171160;28;20273;-74
2021/01/21 00:07:21;;;;;;;6.60;5.53;;;;;;;3.68;100.00;99377.72;6148188;28;20290;-73
2021/01/21 00:10:24;;;;;;;8.00;5.57;;;;;;;3.73;100.00;99386.03;6175481;28;20200;-74
2021/01/21 00:13:27;;;;;;;9.00;5.50;;;;;;;3.71;100.00;99380.00;6174558;28;20259;-74
2021/01/21 00:16:30;;;;;;;6.90;5.47;;;;;;;3.72;100.00;99378.94;6163435;28;20190;-76
2021/01/21 00:19:34;;;;;;;5.97;5.10;;;;;;;3.82;100.00;99388.50;6153621;28;20486;-74
2021/01/21 00:22:38;;;;;;;6.13;5.27;;;;;;;3.79;100.00;99379.81;6160251;28;20402;-74
2021/01/21 00:25:41;;;;;;;8.67;5.40;;;;;;;3.72;100.00;99378.94;6151049;28;20211;-74
2021/01/21 00:28:45;;;;;;;8.17;5.20;;;;;;;3.75;100.00;99378.53;6158537;28;20622;-74
2021/01/21 00:31:49;;;;;;;6.90;5.57;;;;;;;3.70;100.00;99370.25;6162789;28;20672;-74
2021/01/21 00:34:52;;;;;;;9.70;5.73;;;;;;;3.75;100.00;99367.75;6161807;28;20190;-74
2021/01/21 00:37:56;;;;;;;5.90;5.30;;;;;;;3.80;100.00;99354.47;6152100;28;20217;-73
2021/01/21 00:40:59;;;;;;;6.77;5.50;;;;;;;3.77;100.00;99359.47;6156513;28;20240;-73
2021/01/21 00:44:03;;;;;;;5.50;5.00;;;;;;;3.76;100.00;99364.03;6156238;28;20203;-75
2021/01/21 00:47:07;;;;;;;9.80;4.90;;;;;;;3.73;100.00;99358.22;6171045;28;20757;-74
2021/01/21 00:50:11;;;;;;;5.87;4.70;;;;;;;3.73;100.00;99363.59;6173269;28;20303;-74
2021/01/21 00:53:15;;;;;;;11.43;5.90;;;;;;;3.80;100.00;99359.03;6149412;28;20331;-77
2021/01/21 00:56:19;;;;;;;9.30;5.73;;;;;;;3.83;100.00;99363.22;6167923;28;20649;-72
2021/01/21 00:59:25;;;;;;;8.97;5.37;;;;;;;3.75;100.00;99356.97;6135742;28;20212;-72
2021/01/21 01:02:29;;;;;;;7.03;5.07;;;;;;;3.86;100.00;99357.38;6143464;28;20235;-72
2021/01/21 01:05:32;;;;;;;8.93;5.73;;;;;;;3.72;100.00;99351.97;6154455;28;20202;-72
2021/01/21 01:08:37;;;;;;;13.07;6.23;;;;;;;3.80;100.00;99359.88;6167585;28;20196;-73
2021/01/21 01:11:44;;;;;;;7.23;4.87;;;;;;;3.75;100.00;99362.34;6153495;28;20204;-74
2021/01/21 01:14:48;;;;;;;8.07;5.20;;;;;;;3.87;100.00;99353.66;6147233;28;20206;-73
2021/01/21 01:17:51;;;;;;;7.00;5.23;;;;;;;3.90;100.00;99350.53;6146831;28;20200;-72
2021/01/21 01:20:55;;;;;;;7.50;5.20;;;;;;;3.88;100.00;99337.22;6162026;28;20212;-73
2021/01/21 01:23:59;;;;;;;8.23;5.10;;;;;;;3.91;100.00;99349.47;6148942;28;20232;-73
2021/01/21 01:27:03;;;;;;;6.77;4.90;;;;;;;3.86;100.00;99341.19;6175908;28;20194;-74
2021/01/21 01:30:12;;;;;;;9.50;5.80;;;;;;;3.95;100.00;99345.34;6142241;28;20209;-73
2021/01/21 01:33:16;;;;;;;7.97;5.70;;;;;;;3.94;100.00;99354.47;6167250;28;20210;-74
2021/01/21 01:36:19;;;;;;;5.93;4.33;;;;;;;3.89;100.00;99351.56;6153873;28;20213;-74
2021/01/21 01:39:23;;;;;;;5.60;4.77;;;;;;;3.90;100.00;99353.22;6147132;28;20206;-73
2021/01/21 01:42:33;;;;;;;5.40;4.73;;;;;;;3.86;100.00;99351.97;6150851;28;20255;-73
2021/01/21 01:45:39;;;;;;;6.50;4.80;;;;;;;3.89;100.00;99336.19;6163015;28;20231;-74
2021/01/21 01:48:43;;;;;;;7.63;4.70;;;;;;;3.85;100.00;99344.94;6137035;28;20210;-74
2021/01/21 01:51:47;;;;;;;4.87;4.50;;;;;;;3.94;100.00;99347.19;6159898;28;20210;-73
2021/01/21 01:54:53;;;;;;;4.90;4.40;;;;;;;3.90;100.00;99320.84;6146157;28;20199;-73
2021/01/21 01:58:09;;;;;;;4.70;4.30;;;;;;;4.09;100.00;99330.75;6135861;28;20200;-73
2021/01/21 02:01:23;;;;;;;4.63;4.20;;;;;;;4.08;100.00;99342.59;6139299;28;20199;-74
2021/01/21 02:04:27;;;;;;;4.53;4.13;;;;;;;4.09;100.00;99330.75;6163200;28;20431;-74
2021/01/21 02:07:51;;;;;;;4.50;4.20;;;;;;;4.01;100.00;99328.28;6145869;28;20211;-73
2021/01/21 02:11:02;;;;;;;3.90;3.60;;;;;;;4.03;100.00;99331.63;6139410;28;20296;-75
2021/01/21 02:14:16;;;;;;;3.90;3.70;;;;;;;4.00;100.00;99330.19;6138173;28;20210;-74
2021/01/21 02:17:28;;;;;;;3.73;3.53;;;;;;;3.92;100.00;99329.56;6172228;28;20273;-74
2021/01/21 02:21:03;;;;;;;3.63;3.40;;;;;;;3.96;100.00;99331.63;6148297;28;20204;-74
2021/01/21 02:24:45;;;;;;;3.80;3.60;;;;;;;3.94;100.00;99330.16;6128624;28;20265;-73
2021/01/21 02:28:31;;;;;;;3.30;3.20;;;;;;;3.98;100.00;99329.53;6140458;28;20349;-74
2021/01/21 02:31:46;;;;;;;3.30;3.10;;;;;;;3.97;100.00;99321.66;6151436;28;20206;-73
2021/01/21 02:34:57;;;;;;;3.27;3.17;;;;;;;3.96;100.00;99320.00;6162296;28;20194;-73
2021/01/21 02:38:06;;;;;;;3.43;2.90;;;;;;;4.06;100.00;99323.06;6161292;28;20328;-74
2021/01/21 02:41:11;;;;;;;2.53;2.47;;;;;;;4.06;100.00;99323.06;6157112;28;20320;-74
2021/01/21 02:44:15;;;;;;;2.97;2.87;;;;;;;4.01;100.00;99317.50;6168216;28;20512;-74
2021/01/21 02:47:20;;;;;;;2.80;2.60;;;;;;;4.04;100.00;99327.88;6162503;28;20209;-74
2021/01/21 02:50:25;;;;;;;2.80;2.70;;;;;;;4.05;100.00;99327.66;6168072;28;20284;-73
2021/01/21 02:53:31;;;;;;;2.57;2.47;;;;;;;4.03;100.00;99321.63;6141900;28;20207;-73
2021/01/21 02:56:38;;;;;;;2.40;2.30;;;;;;;4.00;100.00;99321.25;6152267;28;20207;-74
2021/01/21 02:59:42;;;;;;;2.20;2.20;;;;;;;4.06;100.00;99312.28;6161424;28;20202;-73
2021/01/21 03:02:56;;;;;;;2.17;2.17;;;;;;;4.07;100.00;99327.44;6131559;28;20219;-73
2021/01/21 03:06:06;;;;;;;2.37;2.37;;;;;;;4.01;100.00;99317.50;6143471;28;20246;-73
2021/01/21 03:09:13;;;;;;;2.23;2.23;;;;;;;4.03;100.00;99315.44;6170334;28;20209;-74
2021/01/21 03:12:20;;;;;;;2.47;2.43;;;;;;;4.00;100.00;99315.84;6156838;28;20238;-73
2021/01/21 03:15:27;;;;;;;2.40;2.40;;;;;;;3.93;100.00;99315.03;6142045;28;20203;-73
2021/01/21 03:18:40;;;;;;;2.20;2.20;;;;;;;4.00;100.00;99321.25;6148741;28;20587;-74
2021/01/21 03:21:46;;;;;;;2.60;2.50;;;;;;;4.07;100.00;99314.78;6147952;28;20214;-73
2021/01/21 03:24:56;;;;;;;2.10;2.10;;;;;;;4.21;100.00;99312.88;6146599;28;20691;-74
2021/01/21 03:28:08;;;;;;;2.17;2.17;;;;;;;4.30;100.00;99306.19;6151968;28;20680;-73
2021/01/21 03:31:13;;;;;;;2.60;2.60;;;;;;;4.41;100.00;99308.25;6163810;28;20205;-73
2021/01/21 03:34:17;;;;;;;2.07;2.07;;;;;;;4.52;100.00;99312.94;6174691;28;20802;-77
2021/01/21 03:37:29;;;;;;;2.30;2.30;;;;;;;4.53;100.00;99298.41;6148587;28;20681;-73
2021/01/21 03:40:32;;;;;;;2.37;2.10;;;;;;;4.51;100.00;99294.25;6151445;28;20233;-74
2021/01/21 03:43:36;;;;;;;2.27;2.27;;;;;;;4.51;100.00;99287.00;6140500;28;20233;-73
2021/01/21 03:47:02;;;;;;;2.10;2.10;;;;;;;4.49;100.00;99289.09;6143237;28;20273;-73
2021/01/21 03:50:26;;;;;;;2.53;2.00;;;;;;;4.35;100.00;99287.47;6161228;28;20677;-74
2021/01/21 03:53:30;;;;;;;2.83;2.43;;;;;;;4.48;100.00;99289.28;6144124;28;20680;-74
2021/01/21 03:56:52;;;;;;;2.20;2.10;;;;;;;4.41;100.00;99287.47;6153496;28;20198;-74
2021/01/21 03:59:57;;;;;;;2.20;2.20;;;;;;;4.34;100.00;99275.84;6135805;28;20202;-74
2021/01/21 04:03:03;;;;;;;2.00;2.00;;;;;;;4.34;100.00;99275.00;6150054;28;20307;-74
2021/01/21 04:06:29;;;;;;;1.90;1.90;;;;;;;4.31;100.00;99280.88;6153919;28;20203;-75
2021/01/21 04:09:40;;;;;;;1.90;1.90;;;;;;;4.39;100.00;99277.94;6145371;28;20574;-75
2021/01/21 04:13:19;;;;;;;2.00;2.00;;;;;;;4.49;100.00;99278.28;6163685;28;20218;-74
2021/01/21 04:16:25;;;;;;;2.07;2.07;;;;;;;4.42;100.00;99278.31;6137780;28;20206;-73
2021/01/21 04:19:30;;;;;;;1.90;1.90;;;;;;;4.48;100.00;99268.53;6153725;28;20208;-75
2021/01/21 04:22:33;;;;;;;2.07;2.07;;;;;;;4.38;100.00;99281.66;6155038;28;20784;-74
2021/01/21 04:25:39;;;;;;;2.10;2.00;;;;;;;4.45;100.00;99277.03;6150103;28;20202;-75
2021/01/21 04:28:42;;;;;;;2.30;1.73;;;;;;;4.56;100.00;99276.38;6158719;28;20211;-74
2021/01/21 04:31:46;;;;;;;1.90;1.90;;;;;;;4.67;100.00;99264.91;6174158;28;20194;-74
2021/01/21 04:34:55;;;;;;;4.33;2.00;;;;;;;4.71;100.00;99260.69;6144420;28;20234;-74
2021/01/21 04:38:00;;;;;;;1.97;1.97;;;;;;;4.68;100.00;99265.69;6151058;28;20730;-74
2021/01/21 04:41:20;;;;;;;2.00;2.00;;;;;;;4.65;100.00;99258.84;6149488;28;20248;-74
2021/01/21 04:44:29;;;;;;;1.87;1.87;;;;;;;4.70;100.00;99250.13;6164366;28;20251;-74
2021/01/21 04:47:39;;;;;;;2.23;2.13;;;;;;;4.70;100.00;99256.34;6146357;28;20205;-73
2021/01/21 04:51:06;;;;;;;2.30;2.20;;;;;;;4.65;100.00;99255.34;6155332;28;20246;-76
2021/01/21 04:54:23;;;;;;;2.10;2.10;;;;;;;4.73;100.00;99255.91;6153579;28;20204;-73
2021/01/21 04:57:43;;;;;;;2.40;2.40;;;;;;;4.60;100.00;99253.28;6159012;28;20227;-74
2021/01/21 05:00:54;;;;;;;2.20;2.20;;;;;;;4.71;100.00;99258.00;6147548;28;20206;-73
2021/01/21 05:03:59;;;;;;;2.57;2.00;;;;;;;4.64;100.00;99259.09;6152419;28;20239;-74
2021/01/21 05:07:16;;;;;;;3.13;2.20;;;;;;;4.64;100.00;99253.69;6140177;28;20206;-73
2021/01/21 05:10:21;;;;;;;4.10;2.40;;;;;;;4.79;100.00;99252.34;6157982;28;20204;-75
2021/01/21 05:13:25;;;;;;;2.97;2.63;;;;;;;4.78;100.00;99239.88;6153962;28;20646;-74
2021/01/21 05:16:54;;;;;;;2.73;2.73;;;;;;;4.77;100.00;99238.22;6149414;28;20259;-74
2021/01/21 05:20:16;;;;;;;2.73;2.60;;;;;;;4.74;100.00;99230.56;6153613;28;20231;-75
2021/01/21 05:23:39;;;;;;;3.20;3.00;;;;;;;4.71;100.00;99233.69;6163933;28;20225;-74
2021/01/21 05:27:08;;;;;;;2.57;2.53;;;;;;;4.70;100.00;99232.03;6148894;28;20206;-74
2021/01/21 05:30:29;;;;;;;2.60;2.60;;;;;;;4.71;100.00;99233.69;6153775;28;20351;-75
2021/01/21 05:33:34;;;;;;;2.53;2.53;;;;;;;4.71;100.00;99244.50;6150460;28;20206;-74
2021/01/21 05:36:44;;;;;;;2.73;2.63;;;;;;;4.68;100.00;99244.09;6151644;28;20226;-74
2021/01/21 05:39:55;;;;;;;2.60;2.60;;;;;;;4.55;100.00;99239.59;6140915;28;20817;-76
2021/01/21 05:43:24;;;;;;;3.20;2.90;;;;;;;4.45;100.00;99239.25;6161043;28;20222;-75
2021/01/21 05:46:38;;;;;;;4.40;3.23;;;;;;;4.57;100.00;99232.09;6137914;28;20546;-74
2021/01/21 05:49:41;;;;;;;3.00;2.90;;;;;;;4.80;100.00;99221.56;6144337;28;20215;-74
2021/01/21 05:52:54;;;;;;;3.10;3.03;;;;;;;4.80;100.00;99221.56;6147089;28;20215;-74
2021/01/21 05:55:57;;;;;;;3.20;3.10;;;;;;;4.75;100.00;99223.28;6158777;28;20637;-74
2021/01/21 05:59:15;;;;;;;4.03;3.37;;;;;;;4.47;100.00;99226.34;6160840;28;20402;-74
2021/01/21 06:02:24;;;;;;;5.43;4.10;;;;;;;4.43;100.00;99231.38;6139384;28;20223;-74
2021/01/21 06:05:38;;;;;;;4.60;4.07;;;;;;;4.45;100.00;99217.63;6147714;28;20215;-74
2021/01/21 06:08:42;;;;;;;3.97;3.77;;;;;;;4.50;100.00;99198.91;6163803;28;20321;-73
2021/01/21 06:11:58;;;;;;;4.03;3.83;;;;;;;4.70;100.00;99221.22;6164476;28;20254;-74
2021/01/21 06:15:03;;;;;;;4.00;3.80;;;;;;;4.75;100.00;99215.97;6157074;28;20305;-75
2021/01/21 06:18:11;;;;;;;4.40;4.10;;;;;;;4.69;100.00;99213.34;6158465;28;20468;-74
2021/01/21 06:21:34;;;;;;;7.07;4.23;;;;;;;4.80;100.00;99205.34;6140370;28;20286;-73
2021/01/21 06:24:50;;;;;;;5.20;4.90;;;;;;;4.84;100.00;99221.97;6136227;28;20394;-72
2021/01/21 06:27:54;;;;;;;4.70;4.47;;;;;;;4.98;100.00;99208.13;6157559;28;20251;-73
2021/01/21 06:30:58;;;;;;;5.43;4.90;;;;;;;5.05;100.00;99211.63;6160059;28;20535;-73
2021/01/21 06:34:08;;;;;;;5.40;4.90;;;;;;;5.02;100.00;99203.94;6148814;28;20396;-73
2021/01/21 06:37:14;;;;;;;6.20;5.60;;;;;;;5.01;100.00;99183.34;6159903;28;20228;-74
2021/01/21 06:40:19;;;;;;;7.93;6.03;;;;;;;4.98;100.00;99186.50;6157997;28;20619;-74
2021/01/21 06:43:28;;;;;;;6.93;6.13;;;;;;;4.77;100.00;99184.19;6154471;28;20372;-73
2021/01/21 06:46:31;;;;;;;8.27;6.20;;;;;;;4.83;100.00;99183.31;6141326;28;20208;-73
2021/01/21 06:49:36;;;;;;;8.77;6.60;;;;;;;4.71;100.00;99190.47;6161498;28;20204;-72
2021/01/21 06:52:41;;;;;;;10.60;6.90;;;;;;;4.87;100.00;99172.88;6162054;28;20196;-73
2021/01/21 06:55:47;;;;;;;13.83;7.13;;;;;;;4.76;100.00;99182.53;6162683;28;20329;-73
2021/01/21 06:58:52;;;;;;;13.87;7.47;;;;;;;4.66;100.00;99181.34;6145740;28;20264;-73
2021/01/21 07:01:56;;;;;;;12.57;7.57;;;;;;;4.72;100.00;99180.50;6162136;28;20195;-73
2021/01/21 07:05:12;;;;;;;10.60;8.23;;;;;;;4.64;100.00;99168.09;6164352;28;20247;-74
2021/01/21 07:08:15;;;;;;;12.53;8.93;;;;;;;4.65;100.00;99169.72;6155022;28;20195;-73
2021/01/21 07:11:22;;;;;;;18.87;9.27;;;;;;;4.68;100.00;99163.88;6135272;28;20212;-76
2021/01/21 07:14:27;;;;;;;15.07;9.50;;;;;;;4.74;100.00;99167.59;6142120;28;20582;-74
2021/01/21 07:17:34;;;;;;;18.23;9.40;;;;;;;4.83;100.00;99161.69;6158239;28;20225;-73
2021/01/21 07:21:07;;;;;;;13.67;9.37;;;;;;;4.87;100.00;99145.88;6148711;28;20198;-73
2021/01/21 07:24:12;;;;;;;19.63;10.83;;;;;;;4.72;100.00;99148.91;6148219;28;20237;-73
2021/01/21 07:27:19;;;;;;;20.93;11.37;;;;;;;4.74;100.00;99163.03;6134143;28;20201;-74
2021/01/21 07:30:25;;;;;;;21.33;11.47;;;;;;;4.96;100.00;99166.97;6131088;28;20245;-73
2021/01/21 07:33:28;;;;;;;24.27;12.47;;;;;;;4.97;100.00;99178.63;6133889;28;20217;-73
2021/01/21 07:36:32;;;;;;;23.37;12.63;;;;;;;5.06;100.00;99167.31;6133508;28;20711;-73
2021/01/21 07:39:51;;;;;;;22.57;11.83;;;;;;;4.92;100.00;99163.06;6130197;28;20676;-74
2021/01/21 07:42:55;;;;;;;22.00;12.10;;;;;;;4.81;100.00;99173.75;6110275;29;20217;-73
2021/01/21 07:46:23;;;;;;;22.80;12.27;;;;;;;4.78;100.00;99180.44;6102868;29;20234;-73
2021/01/21 07:49:27;;;;;;;19.23;11.80;;;;;;;4.84;100.00;99174.16;6110197;29;20214;-72
2021/01/21 07:52:39;;;;;;;26.60;12.70;;;;;;;4.99;100.00;99171.13;6107520;29;20207;-73
2021/01/21 07:55:42;;;;;;;23.03;11.27;;;;;;;4.92;100.00;99182.00;6105225;29;20690;-76
2021/01/21 07:58:46;;;;;;;17.50;11.10;;;;;;;4.91;100.00;99180.31;6108194;29;20250;-74
2021/01/21 08:01:57;;;;;;;19.87;12.10;;;;;;;4.81;100.00;99182.69;6106872;29;20288;-76
2021/01/21 08:05:01;;;;;;;19.00;11.17;;;;;;;4.92;100.00;99182.00;6104427;29;20217;-74
2021/01/21 08:08:06;;;;;;;17.20;11.47;;;;;;;4.87;100.00;99173.72;6114837;29;20265;-75
2021/01/21 08:11:12;;;;;;;16.07;11.13;;;;;;;4.79;100.00;99192.91;6103418;29;20662;-73
2021/01/21 08:14:17;;;;;;;16.80;10.60;;;;;;;4.92;100.00;99187.41;6117725;29;20205;-74
2021/01/21 08:17:21;;;;;;;19.20;11.40;;;;;;;4.96;100.00;99183.19;6107468;29;20604;-72
2021/01/21 08:20:26;;;;;;;18.70;10.40;;;;;;;4.84;100.00;99174.16;6109040;29;20203;-73
2021/01/21 08:23:30;;;;;;;17.60;10.20;;;;;;;4.81;100.00;99174.59;6110769;29;20199;-72
2021/01/21 08:26:34;;;;;;;12.90;9.47;;;;;;;5.00;100.00;99170.91;6112919;29;20203;-72
2021/01/21 08:29:37;;;;;;;12.83;9.50;;;;;;;5.03;100.00;99178.56;6113577;29;20201;-73
2021/01/21 08:32:41;;;;;;;14.90;9.73;;;;;;;4.98;100.00;99159.47;6112223;29;20205;-74
2021/01/21 08:35:50;;;;;;;11.67;8.10;;;;;;;5.08;100.00;99154.38;6116044;29;20247;-72
2021/01/21 08:38:56;;;;;;;12.10;8.10;;;;;;;5.07;100.00;99158.16;6114493;29;20226;-71
2021/01/21 08:42:00;;;;;;;9.53;7.93;;;;;;;5.23;100.00;99155.94;6131008;29;20242;-74
2021/01/21 08:45:06;;;;;;;16.03;8.43;;;;;;;5.01;100.00;99153.63;6135511;29;20280;-72
2021/01/21 08:48:11;;;;;;;14.07;7.40;;;;;;;5.15;100.00;99154.34;6137541;29;20198;-71
2021/01/21 08:51:34;;;;;;;12.60;7.80;;;;;;;4.78;100.00;99164.22;6138332;29;20375;-73
2021/01/21 08:54:52;;;;;;;12.47;7.70;;;;;;;4.95;100.00;99157.22;6138769;29;20232;-74
2021/01/21 08:58:01;;;;;;;14.03;8.23;;;;;;;5.04;100.00;99142.38;6130943;28;21688;-73
2021/01/21 09:01:06;;;;;;;13.77;7.73;;;;;;;5.22;100.00;99155.09;6123715;28;20208;-73
2021/01/21 09:04:22;;;;;;;14.20;7.57;;;;;;;5.31;100.00;99152.94;6132110;29;20700;-72
2021/01/21 09:07:26;;;;;;;10.43;7.37;;;;;;;5.17;100.00;99143.28;6128344;29;20201;-73
2021/01/21 09:10:43;;;;;;;8.87;7.73;;;;;;;5.07;100.00;99131.13;6136940;28;20288;-73
2021/01/21 09:13:48;;;;;;;12.93;7.13;;;;;;;4.99;100.00;99133.28;6142363;28;20237;-72
2021/01/21 09:16:53;;;;;;;10.30;7.60;;;;;;;4.92;100.00;99144.16;6147242;28;20213;-74
2021/01/21 09:19:57;;;;;;;13.17;8.63;;;;;;;4.97;100.00;99125.41;6139914;28;20212;-73
2021/01/21 09:23:12;;;;;;;10.03;7.10;;;;;;;5.04;100.00;99136.97;6135029;28;20696;-74
2021/01/21 09:26:18;;;;;;;11.00;7.17;;;;;;;4.98;100.00;99143.25;6137042;28;20811;-72
2021/01/21 09:29:22;;;;;;;13.33;8.00;;;;;;;4.94;100.00;99131.25;6137807;29;20322;-73
2021/01/21 09:32:27;;;;;;;9.47;7.87;;;;;;;4.89;100.00;99133.78;6136046;29;20206;-73
2021/01/21 09:35:30;;;;;;;10.87;7.27;;;;;;;4.99;100.00;99126.00;6135572;29;20243;-73
2021/01/21 09:38:34;;;;;;;14.63;8.27;;;;;;;4.96;100.00;99121.03;6137115;28;20267;-72
2021/01/21 09:41:38;;;;;;;11.80;7.93;;;;;;;5.07;100.00;99125.72;6141067;29;20287;-72
2021/01/21 09:44:42;;;;;;;12.37;8.30;;;;;;;4.99;100.00;99123.31;6136567;28;20220;-72
2021/01/21 09:47:46;;;;;;;10.67;7.30;;;;;;;5.08;100.00;99116.53;6140491;28;20206;-72
2021/01/21 09:50:49;;;;;;;14.97;7.57;;;;;;;5.26;100.00;99106.81;6136017;29;20209;-72
2021/01/21 09:53:52;;;;;;;9.93;7.13;;;;;;;5.30;100.00;99094.50;6138073;28;20202;-74
2021/01/21 09:56:57;;;;;;;10.60;7.17;;;;;;;5.20;100.00;99096.88;6122725;29;20686;-73
2021/01/21 10:00:00;;;;;;;12.43;7.40;;;;;;;5.16;100.00;99091.13;6132500;29;20572;-76
2021/01/21 10:03:04;;;;;;;11.60;7.57;;;;;;;5.14;100.00;99086.97;6135103;29;20252;-73
2021/01/21 10:06:08;;;;;;;10.27;7.30;;;;;;;5.05;100.00;99089.16;6135827;29;20256;-73
2021/01/21 10:09:12;;;;;;;13.80;8.40;;;;;;;5.16;100.00;99085.72;6139971;29;20282;-73
2021/01/21 10:12:17;;;;;;;12.17;7.57;;;;;;;5.28;100.00;99088.50;6137249;29;20200;-73
2021/01/21 10:15:20;;;;;;;14.60;7.57;;;;;;;5.24;100.00;99092.72;6138583;28;20443;-74
2021/01/21 10:18:23;;;;;;;11.80;7.07;;;;;;;5.25;100.00;99067.31;6145606;28;20209;-74
2021/01/21 10:21:27;;;;;;;10.57;6.77;;;;;;;5.18;100.00;99083.63;6126801;28;20205;-74
2021/01/21 10:24:30;;;;;;;8.30;6.73;;;;;;;5.25;100.00;99076.25;6133109;29;20231;-72
2021/01/21 10:27:34;;;;;;;12.23;6.67;;;;;;;5.08;100.00;99073.28;6133670;29;20716;-73
2021/01/21 10:30:38;;;;;;;12.20;6.37;;;;;;;5.04;100.00;99071.28;6126450;29;20210;-71
2021/01/21 10:33:43;;;;;;;9.50;6.37;;;;;;;5.13;100.00;99064.53;6135116;29;20217;-72
2021/01/21 10:36:47;;;;;;;10.37;6.00;;;;;;;5.17;100.00;99060.31;6136880;28;20255;-72
2021/01/21 10:39:51;;;;;;;14.63;5.80;;;;;;;5.19;100.00;99058.22;6139638;29;20226;-72
2021/01/21 10:42:55;;;;;;;11.17;6.00;;;;;;;5.30;100.00;99059.34;6139587;29;20199;-73
2021/01/21 10:45:58;;;;;;;22.67;6.87;;;;;;;5.44;99.85;99044.63;6142188;29;20300;-73
2021/01/21 10:49:02;;;;;;;10.10;5.83;;;;;;;5.33;99.76;99054.31;6138051;29;20209;-73
2021/01/21 10:52:06;;;;;;;13.53;5.67;;;;;;;5.20;100.00;99048.22;6139835;28;20211;-72
2021/01/21 10:55:12;;;;;;;12.53;6.00;;;;;;;5.33;100.00;99048.91;6136149;28;20210;-73
2021/01/21 10:58:17;;;;;;;10.43;5.67;;;;;;;5.38;100.00;99026.59;6133265;29;20652;-74
2021/01/21 11:01:21;;;;;;;15.20;5.50;;;;;;;5.32;100.00;99025.63;6129492;28;20212;-73
2021/01/21 11:04:24;;;;;;;12.20;5.43;;;;;;;5.51;99.38;99023.72;6134293;28;20321;-72
2021/01/21 11:07:27;;;;;;;20.43;5.80;;;;;;;5.52;99.36;99019.97;6136297;29;20608;-72
2021/01/21 11:10:32;;;;;;;7.63;5.47;;;;;;;5.40;99.36;99013.66;6125406;29;20316;-73
2021/01/21 11:13:36;;;;;;;16.03;5.73;;;;;;;5.52;99.24;99009.97;6135393;28;20694;-73
2021/01/21 11:16:39;;;;;;;8.37;5.43;;;;;;;5.46;99.44;99001.94;6134820;28;20202;-73
2021/01/21 11:19:46;;;;;;;13.20;5.50;;;;;;;5.57;99.21;99012.81;6140286;28;20257;-74
2021/01/21 11:22:49;;;;;;;10.37;5.70;;;;;;;5.53;98.63;99010.78;6139479;29;20198;-73
2021/01/21 11:25:52;;;;;;;13.27;5.53;;;;;;;5.39;99.29;99009.31;6130019;28;20229;-77
2021/01/21 11:28:57;;;;;;;10.87;5.27;;;;;;;5.52;99.82;99009.16;6143210;28;20201;-73
2021/01/21 11:32:00;;;;;;;10.00;5.83;;;;;;;5.50;99.31;99016.66;6132358;28;20200;-73
2021/01/21 11:35:06;;;;;;;18.93;5.20;;;;;;;5.52;99.22;98995.63;6127918;29;20198;-73
2021/01/21 11:38:13;;;;;;;12.57;5.63;;;;;;;5.50;99.18;99003.13;6127814;29;20565;-74
2021/01/21 11:41:16;;;;;;;11.33;5.50;;;;;;;5.44;99.69;98990.53;6125209;29;20616;-73
2021/01/21 11:44:20;;;;;;;14.40;5.90;;;;;;;5.58;98.88;98989.28;6136686;28;20221;-76
2021/01/21 11:47:23;;;;;;;11.50;5.53;;;;;;;5.63;98.49;98978.59;6137925;29;20619;-73
2021/01/21 11:50:26;;;;;;;15.47;5.93;;;;;;;5.48;98.50;98975.50;6129796;29;20209;-73
2021/01/21 11:53:31;;;;;;;19.07;6.03;;;;;;;5.53;98.59;98975.63;6135919;29;20690;-73
2021/01/21 11:56:34;;;;;;;7.53;5.23;;;;;;;5.58;98.42;98970.34;6135100;29;20714;-73
2021/01/21 11:59:38;;;;;;;26.13;5.67;;;;;;;5.48;98.76;98959.25;6134286;29;20579;-73
2021/01/21 12:02:41;;;;;;;14.93;5.40;;;;;;;5.37;99.62;98933.00;6137622;28;20701;-73
2021/01/21 12:05:45;;;;;;;13.87;5.97;;;;;;;5.43;99.62;98932.09;6140916;28;20291;-76
2021/01/21 12:08:49;;;;;;;20.50;5.97;;;;;;;5.29;99.60;98917.91;6126471;29;20202;-71
2021/01/21 12:11:52;;;;;;;11.57;5.67;;;;;;;5.30;100.00;98910.63;6131762;29;20239;-72
2021/01/21 12:14:56;;;;;;;14.27;5.70;;;;;;;5.26;100.00;98901.34;6134917;28;20657;-73
2021/01/21 12:17:59;;;;;;;16.87;4.80;;;;;;;5.45;99.61;98894.81;6129244;29;20204;-73
2021/01/21 12:21:05;;;;;;;8.67;5.00;;;;;;;5.36;99.68;98896.22;6129899;29;20207;-73
2021/01/21 12:24:09;;;;;;;12.53;4.70;;;;;;;5.28;100.00;98877.59;6134828;29;20192;-73
2021/01/21 12:27:12;;;;;;;17.37;5.53;;;;;;;5.24;100.00;98887.25;6124357;28;20237;-74
2021/01/21 12:30:18;;;;;;;8.90;5.43;;;;;;;5.23;100.00;98885.59;6129914;28;20196;-72
2021/01/21 12:33:21;;;;;;;11.93;5.30;;;;;;;5.45;99.47;98884.00;6146508;28;20209;-73
2021/01/21 12:36:24;;;;;;;12.60;5.30;;;;;;;5.43;98.51;98886.09;6138456;29;20216;-72
2021/01/21 12:39:28;;;;;;;13.57;5.27;;;;;;;5.32;99.59;98890.41;6132962;29;20635;-73
2021/01/21 12:42:31;;;;;;;12.47;5.83;;;;;;;5.37;98.73;98897.84;6130492;28;20420;-72
2021/01/21 12:45:35;;;;;;;11.50;5.93;;;;;;;5.39;99.23;98907.38;6141942;29;20213;-72
2021/01/21 12:48:40;;;;;;;11.87;5.77;;;;;;;5.41;98.95;98899.88;6139645;29;20199;-76
2021/01/21 12:51:43;;;;;;;8.83;5.17;;;;;;;5.41;98.45;98893.63;6133823;28;20306;-73
2021/01/21 12:54:48;;;;;;;13.27;5.27;;;;;;;5.17;99.06;98886.47;6131431;28;20198;-73
2021/01/21 12:57:51;;;;;;;15.97;6.67;;;;;;;5.36;99.02;98885.38;6140070;28;20272;-73
2021/01/21 13:00:55;;;;;;;9.07;5.03;;;;;;;5.41;98.81;98872.00;6135878;29;20208;-74
2021/01/21 13:03:59;;;;;;;12.07;5.83;;;;;;;5.34;97.83;98871.28;6120798;29;20345;-73
2021/01/21 13:07:03;;;;;;;13.07;5.63;;;;;;;5.44;97.75;98849.91;6142783;28;20219;-77
2021/01/21 13:10:07;;;;;;;16.90;6.00;;;;;;;5.43;97.83;98832.03;6137029;28;21241;-75
2021/01/21 13:13:13;;;;;;;10.57;5.43;;;;;;;5.62;96.81;98830.91;6138848;28;20266;-72
2021/01/21 13:16:17;;;;;;;13.53;5.70;;;;;;;5.34;97.21;98822.63;6140070;29;20205;-73
2021/01/21 13:19:20;;;;;;;11.80;5.87;;;;;;;5.37;97.71;98806.72;6136202;28;20212;-74
2021/01/21 13:22:23;;;;;;;10.50;5.53;;;;;;;5.40;97.25;98821.66;6142175;29;20207;-74
2021/01/21 13:25:26;;;;;;;9.53;5.07;;;;;;;5.51;96.40;98812.75;6136163;29;20497;-72
2021/01/21 13:28:29;;;;;;;15.10;5.43;;;;;;;5.35;97.65;98829.66;6139252;29;20206;-72
2021/01/21 13:31:34;;;;;;;9.60;4.83;;;;;;;5.54;96.27;98807.72;6137739;29;20946;-74
2021/01/21 13:34:37;;;;;;;10.43;4.90;;;;;;;5.33;96.95;98807.44;6140980;29;20208;-72
2021/01/21 13:37:41;;;;;;;8.43;4.60;;;;;;;5.28;96.93;98834.34;6135128;29;20712;-75
2021/01/21 13:40:44;;;;;;;13.00;5.07;;;;;;;5.42;96.89;98833.06;6133442;29;20321;-73
2021/01/21 13:43:47;;;;;;;8.07;4.60;;;;;;;5.50;96.45;98827.31;6134180;29;20209;-74
2021/01/21 13:46:51;;;;;;;10.90;4.80;;;;;;;5.39;96.30;98836.25;6132296;28;20222;-73
2021/01/21 13:49:55;;;;;;;8.63;4.47;;;;;;;5.55;95.56;98814.75;6134743;29;20202;-72
2021/01/21 13:52:58;;;;;;;10.10;4.37;;;;;;;5.53;95.10;98826.88;6139713;29;20201;-73
2021/01/21 13:56:03;;;;;;;9.47;4.07;;;;;;;5.43;95.88;98821.22;6138735;28;20210;-72
2021/01/21 13:59:08;;;;;;;8.60;4.23;;;;;;;5.35;95.87;98808.84;6139967;29;20209;-73
2021/01/21 14:02:12;;;;;;;15.33;4.53;;;;;;;5.45;95.39;98797.47;6140801;28;20280;-73
2021/01/21 14:05:16;;;;;;;10.40;4.57;;;;;;;5.52;95.07;98798.19;6133302;29;20208;-73
2021/01/21 14:08:19;;;;;;;13.60;4.53;;;;;;;5.49;94.44;98787.84;6138776;28;20663;-73
2021/01/21 14:11:23;;;;;;;13.93;4.40;;;;;;;5.59;94.55;98793.50;6137684;29;20221;-74
2021/01/21 14:14:26;;;;;;;6.23;4.13;;;;;;;5.47;94.36;98827.81;6144315;28;20558;-73
2021/01/21 14:17:30;;;;;;;10.77;3.97;;;;;;;5.44;93.90;98818.28;6140394;29;20212;-72
2021/01/21 14:20:33;;;;;;;15.27;4.27;;;;;;;5.43;94.62;98810.41;6144523;28;20330;-72
2021/01/21 14:23:37;;;;;;;4.40;3.90;;;;;;;5.36;94.19;98806.97;6142148;29;20206;-72
2021/01/21 14:26:41;;;;;;;8.70;3.90;;;;;;;5.41;94.76;98785.47;6141368;28;20568;-73
2021/01/21 14:29:46;;;;;;;7.93;4.10;;;;;;;5.28;94.68;98799.19;6144305;28;20292;-74
2021/01/21 14:32:50;;;;;;;13.77;3.67;;;;;;;5.30;94.68;98816.00;6135803;28;20203;-73
2021/01/21 14:35:53;;;;;;;7.23;3.90;;;;;;;5.20;95.30;98804.94;6136032;29;20351;-74
2021/01/21 14:38:58;;;;;;;14.53;4.13;;;;;;;5.30;94.88;98800.63;6132617;29;20221;-73